sensor_id;sensor_type;location;lat;lon;timestamp;P1;durP1;ratioP1;P2;durP2;ratioP2
82242;SDS011;71844;51.528;4.442;2024-01-06T00:00:30;6.47;;;2.97;;
82242;SDS011;71844;51.528;4.442;2024-01-06T00:02:57;9.27;;;3.15;;
82242;SDS011;71844;51.528;4.442;2024-01-06T00:05:24;6.00;;;2.72;;
82242;SDS011;71844;51.528;4.442;2024-01-06T00:07:51;5.53;;;1.67;;
82242;SDS011;71844;51.528;4.442;2024-01-06T00:10:18;5.53;;;2.67;;
82242;SDS011;71844;51.528;4.442;2024-01-06T00:12:45;6.53;;;2.80;;
82242;SDS011;71844;51.528;4.442;2024-01-06T00:15:12;7.53;;;3.25;;
82242;SDS011;71844;51.528;4.442;2024-01-06T00:17:39;6.75;;;3.17;;
82242;SDS011;71844;51.528;4.442;2024-01-06T00:20:06;8.25;;;3.33;;
82242;SDS011;71844;51.528;4.442;2024-01-06T00:22:34;6.82;;;3.03;;
82242;SDS011;71844;51.528;4.442;2024-01-06T00:25:01;8.00;;;4.00;;
82242;SDS011;71844;51.528;4.442;2024-01-06T00:27:28;7.45;;;3.13;;
82242;SDS011;71844;51.528;4.442;2024-01-06T00:29:55;6.32;;;3.25;;
82242;SDS011;71844;51.528;4.442;2024-01-06T00:32:22;8.02;;;3.40;;
82242;SDS011;71844;51.528;4.442;2024-01-06T00:34:49;5.80;;;2.70;;
82242;SDS011;71844;51.528;4.442;2024-01-06T00:37:16;7.20;;;3.05;;
82242;SDS011;71844;51.528;4.442;2024-01-06T00:39:43;6.22;;;2.80;;
82242;SDS011;71844;51.528;4.442;2024-01-06T00:42:10;6.22;;;3.05;;
82242;SDS011;71844;51.528;4.442;2024-01-06T00:44:37;6.03;;;3.28;;
82242;SDS011;71844;51.528;4.442;2024-01-06T00:47:04;5.82;;;2.63;;
82242;SDS011;71844;51.528;4.442;2024-01-06T00:49:31;5.25;;;3.10;;
82242;SDS011;71844;51.528;4.442;2024-01-06T00:51:58;8.65;;;2.88;;
82242;SDS011;71844;51.528;4.442;2024-01-06T00:54:25;5.97;;;3.15;;
82242;SDS011;71844;51.528;4.442;2024-01-06T00:56:52;7.13;;;2.90;;
82242;SDS011;71844;51.528;4.442;2024-01-06T00:59:23;6.70;;;3.53;;
82242;SDS011;71844;51.528;4.442;2024-01-06T01:01:51;5.78;;;2.33;;
82242;SDS011;71844;51.528;4.442;2024-01-06T01:04:18;7.75;;;2.90;;
82242;SDS011;71844;51.528;4.442;2024-01-06T01:06:45;4.63;;;2.47;;
82242;SDS011;71844;51.528;4.442;2024-01-06T01:09:12;4.05;;;2.10;;
82242;SDS011;71844;51.528;4.442;2024-01-06T01:11:41;6.72;;;2.92;;
82242;SDS011;71844;51.528;4.442;2024-01-06T01:14:09;5.22;;;2.60;;
82242;SDS011;71844;51.528;4.442;2024-01-06T01:16:36;5.25;;;2.03;;
82242;SDS011;71844;51.528;4.442;2024-01-06T01:19:03;5.32;;;2.35;;
82242;SDS011;71844;51.528;4.442;2024-01-06T01:21:30;5.72;;;3.13;;
82242;SDS011;71844;51.528;4.442;2024-01-06T01:23:57;6.05;;;3.00;;
82242;SDS011;71844;51.528;4.442;2024-01-06T01:26:24;8.38;;;3.13;;
82242;SDS011;71844;51.528;4.442;2024-01-06T01:28:54;5.38;;;2.60;;
82242;SDS011;71844;51.528;4.442;2024-01-06T01:31:21;5.85;;;2.67;;
82242;SDS011;71844;51.528;4.442;2024-01-06T01:33:48;6.97;;;3.00;;
82242;SDS011;71844;51.528;4.442;2024-01-06T01:36:15;8.55;;;3.58;;
82242;SDS011;71844;51.528;4.442;2024-01-06T01:38:44;9.15;;;4.65;;
82242;SDS011;71844;51.528;4.442;2024-01-06T01:41:11;9.20;;;3.85;;
82242;SDS011;71844;51.528;4.442;2024-01-06T01:43:38;8.95;;;4.05;;
82242;SDS011;71844;51.528;4.442;2024-01-06T01:46:05;7.03;;;3.70;;
82242;SDS011;71844;51.528;4.442;2024-01-06T01:48:32;6.80;;;3.38;;
82242;SDS011;71844;51.528;4.442;2024-01-06T01:51:01;6.82;;;3.50;;
82242;SDS011;71844;51.528;4.442;2024-01-06T01:53:28;6.00;;;3.22;;
82242;SDS011;71844;51.528;4.442;2024-01-06T01:55:57;6.00;;;2.78;;
82242;SDS011;71844;51.528;4.442;2024-01-06T01:58:24;7.35;;;3.30;;
82242;SDS011;71844;51.528;4.442;2024-01-06T02:04:04;5.63;;;3.08;;
82242;SDS011;71844;51.528;4.442;2024-01-06T02:06:32;6.22;;;3.13;;
82242;SDS011;71844;51.528;4.442;2024-01-06T02:08:58;6.95;;;3.03;;
82242;SDS011;71844;51.528;4.442;2024-01-06T02:11:25;6.93;;;2.47;;
82242;SDS011;71844;51.528;4.442;2024-01-06T02:13:52;4.90;;;2.28;;
82242;SDS011;71844;51.528;4.442;2024-01-06T02:16:19;6.10;;;2.40;;
82242;SDS011;71844;51.528;4.442;2024-01-06T02:18:46;5.68;;;2.67;;
82242;SDS011;71844;51.528;4.442;2024-01-06T02:21:13;5.38;;;2.65;;
82242;SDS011;71844;51.528;4.442;2024-01-06T02:23:40;5.93;;;2.33;;
82242;SDS011;71844;51.528;4.442;2024-01-06T02:26:09;6.55;;;3.22;;
82242;SDS011;71844;51.528;4.442;2024-01-06T02:28:36;5.97;;;3.00;;
82242;SDS011;71844;51.528;4.442;2024-01-06T02:31:03;4.53;;;2.13;;
82242;SDS011;71844;51.528;4.442;2024-01-06T02:33:30;4.93;;;2.35;;
82242;SDS011;71844;51.528;4.442;2024-01-06T02:35:57;6.30;;;3.47;;
82242;SDS011;71844;51.528;4.442;2024-01-06T02:38:23;4.45;;;2.45;;
82242;SDS011;71844;51.528;4.442;2024-01-06T02:40:50;4.70;;;2.65;;
82242;SDS011;71844;51.528;4.442;2024-01-06T02:43:17;3.60;;;1.73;;
82242;SDS011;71844;51.528;4.442;2024-01-06T02:45:44;8.80;;;3.08;;
82242;SDS011;71844;51.528;4.442;2024-01-06T02:48:13;3.63;;;2.20;;
82242;SDS011;71844;51.528;4.442;2024-01-06T02:50:40;5.65;;;2.90;;
82242;SDS011;71844;51.528;4.442;2024-01-06T02:53:07;4.18;;;2.08;;
82242;SDS011;71844;51.528;4.442;2024-01-06T02:55:36;3.80;;;2.33;;
82242;SDS011;71844;51.528;4.442;2024-01-06T02:58:02;3.35;;;1.65;;
82242;SDS011;71844;51.528;4.442;2024-01-06T03:00:29;3.25;;;1.58;;
82242;SDS011;71844;51.528;4.442;2024-01-06T03:02:56;4.18;;;2.25;;
82242;SDS011;71844;51.528;4.442;2024-01-06T03:05:23;3.88;;;2.33;;
82242;SDS011;71844;51.528;4.442;2024-01-06T03:07:50;4.03;;;2.47;;
82242;SDS011;71844;51.528;4.442;2024-01-06T03:10:17;4.68;;;2.28;;
82242;SDS011;71844;51.528;4.442;2024-01-06T03:12:44;4.30;;;1.90;;
82242;SDS011;71844;51.528;4.442;2024-01-06T03:15:10;6.18;;;3.05;;
82242;SDS011;71844;51.528;4.442;2024-01-06T03:17:38;4.05;;;2.45;;
82242;SDS011;71844;51.528;4.442;2024-01-06T03:20:05;7.53;;;3.35;;
82242;SDS011;71844;51.528;4.442;2024-01-06T03:22:35;3.72;;;2.30;;
82242;SDS011;71844;51.528;4.442;2024-01-06T03:25:03;5.57;;;2.58;;
82242;SDS011;71844;51.528;4.442;2024-01-06T03:27:30;5.15;;;2.75;;
82242;SDS011;71844;51.528;4.442;2024-01-06T03:29:57;4.05;;;2.35;;
82242;SDS011;71844;51.528;4.442;2024-01-06T03:32:24;6.30;;;3.08;;
82242;SDS011;71844;51.528;4.442;2024-01-06T03:34:51;4.88;;;2.72;;
82242;SDS011;71844;51.528;4.442;2024-01-06T03:37:18;4.82;;;1.70;;
82242;SDS011;71844;51.528;4.442;2024-01-06T03:39:45;3.97;;;2.10;;
82242;SDS011;71844;51.528;4.442;2024-01-06T03:42:12;3.55;;;2.28;;
82242;SDS011;71844;51.528;4.442;2024-01-06T03:44:38;4.55;;;2.20;;
82242;SDS011;71844;51.528;4.442;2024-01-06T03:47:05;4.30;;;2.10;;
82242;SDS011;71844;51.528;4.442;2024-01-06T03:49:32;4.72;;;2.15;;
82242;SDS011;71844;51.528;4.442;2024-01-06T03:51:59;3.05;;;1.73;;
82242;SDS011;71844;51.528;4.442;2024-01-06T03:54:26;2.95;;;1.88;;
82242;SDS011;71844;51.528;4.442;2024-01-06T03:56:53;3.25;;;1.83;;
82242;SDS011;71844;51.528;4.442;2024-01-06T03:59:19;2.90;;;1.70;;
82242;SDS011;71844;51.528;4.442;2024-01-06T04:01:46;3.97;;;1.85;;
82242;SDS011;71844;51.528;4.442;2024-01-06T04:04:13;3.33;;;1.90;;
82242;SDS011;71844;51.528;4.442;2024-01-06T04:06:40;3.70;;;2.03;;
82242;SDS011;71844;51.528;4.442;2024-01-06T04:09:07;3.05;;;1.95;;
82242;SDS011;71844;51.528;4.442;2024-01-06T04:11:35;3.72;;;2.05;;
82242;SDS011;71844;51.528;4.442;2024-01-06T04:14:02;3.45;;;1.85;;
82242;SDS011;71844;51.528;4.442;2024-01-06T04:16:29;2.78;;;1.67;;
82242;SDS011;71844;51.528;4.442;2024-01-06T04:18:56;4.35;;;2.70;;
82242;SDS011;71844;51.528;4.442;2024-01-06T04:21:23;6.05;;;2.28;;
82242;SDS011;71844;51.528;4.442;2024-01-06T04:23:52;4.55;;;2.40;;
82242;SDS011;71844;51.528;4.442;2024-01-06T04:26:19;5.75;;;3.08;;
82242;SDS011;71844;51.528;4.442;2024-01-06T04:28:46;4.88;;;2.50;;
82242;SDS011;71844;51.528;4.442;2024-01-06T04:31:13;3.70;;;2.30;;
82242;SDS011;71844;51.528;4.442;2024-01-06T04:33:39;4.38;;;2.70;;
82242;SDS011;71844;51.528;4.442;2024-01-06T04:36:07;5.82;;;3.35;;
82242;SDS011;71844;51.528;4.442;2024-01-06T04:38:34;5.07;;;2.88;;
82242;SDS011;71844;51.528;4.442;2024-01-06T04:41:01;4.03;;;2.67;;
82242;SDS011;71844;51.528;4.442;2024-01-06T04:43:28;3.60;;;2.20;;
82242;SDS011;71844;51.528;4.442;2024-01-06T04:45:54;4.55;;;2.70;;
82242;SDS011;71844;51.528;4.442;2024-01-06T04:48:23;3.70;;;1.88;;
82242;SDS011;71844;51.528;4.442;2024-01-06T04:50:50;4.93;;;2.72;;
82242;SDS011;71844;51.528;4.442;2024-01-06T04:53:17;4.13;;;2.40;;
82242;SDS011;71844;51.528;4.442;2024-01-06T04:55:44;6.00;;;3.35;;
82242;SDS011;71844;51.528;4.442;2024-01-06T04:58:11;4.28;;;2.33;;
82242;SDS011;71844;51.528;4.442;2024-01-06T05:00:38;4.07;;;2.63;;
82242;SDS011;71844;51.528;4.442;2024-01-06T05:03:05;6.93;;;2.65;;
82242;SDS011;71844;51.528;4.442;2024-01-06T05:05:31;6.72;;;3.30;;
82242;SDS011;71844;51.528;4.442;2024-01-06T05:07:58;6.35;;;2.95;;
82242;SDS011;71844;51.528;4.442;2024-01-06T05:10:25;3.63;;;2.55;;
82242;SDS011;71844;51.528;4.442;2024-01-06T05:12:52;4.07;;;2.55;;
82242;SDS011;71844;51.528;4.442;2024-01-06T05:15:19;4.30;;;2.75;;
82242;SDS011;71844;51.528;4.442;2024-01-06T05:17:46;6.40;;;2.83;;
82242;SDS011;71844;51.528;4.442;2024-01-06T05:20:13;4.00;;;2.97;;
82242;SDS011;71844;51.528;4.442;2024-01-06T05:22:43;5.20;;;2.80;;
82242;SDS011;71844;51.528;4.442;2024-01-06T05:25:10;4.78;;;2.70;;
82242;SDS011;71844;51.528;4.442;2024-01-06T05:27:37;5.70;;;3.17;;
82242;SDS011;71844;51.528;4.442;2024-01-06T05:30:04;5.13;;;2.97;;
82242;SDS011;71844;51.528;4.442;2024-01-06T05:32:32;5.88;;;2.70;;
82242;SDS011;71844;51.528;4.442;2024-01-06T05:34:59;5.13;;;2.85;;
82242;SDS011;71844;51.528;4.442;2024-01-06T05:37:26;5.18;;;2.85;;
82242;SDS011;71844;51.528;4.442;2024-01-06T05:39:53;7.97;;;3.03;;
82242;SDS011;71844;51.528;4.442;2024-01-06T05:42:21;5.40;;;2.67;;
82242;SDS011;71844;51.528;4.442;2024-01-06T05:44:48;4.40;;;2.70;;
82242;SDS011;71844;51.528;4.442;2024-01-06T05:47:14;5.35;;;2.58;;
82242;SDS011;71844;51.528;4.442;2024-01-06T05:49:43;4.18;;;2.30;;
82242;SDS011;71844;51.528;4.442;2024-01-06T05:54:40;3.63;;;2.22;;
82242;SDS011;71844;51.528;4.442;2024-01-06T05:57:08;3.95;;;2.50;;
82242;SDS011;71844;51.528;4.442;2024-01-06T05:59:35;3.83;;;2.38;;
82242;SDS011;71844;51.528;4.442;2024-01-06T06:02:02;3.83;;;2.00;;
82242;SDS011;71844;51.528;4.442;2024-01-06T06:04:29;4.63;;;1.85;;
82242;SDS011;71844;51.528;4.442;2024-01-06T06:06:56;5.32;;;2.38;;
82242;SDS011;71844;51.528;4.442;2024-01-06T06:09:27;4.30;;;2.10;;
82242;SDS011;71844;51.528;4.442;2024-01-06T06:11:57;4.50;;;2.58;;
82242;SDS011;71844;51.528;4.442;2024-01-06T06:14:24;5.10;;;2.70;;
82242;SDS011;71844;51.528;4.442;2024-01-06T06:16:55;4.47;;;2.95;;
82242;SDS011;71844;51.528;4.442;2024-01-06T06:19:22;5.45;;;2.83;;
82242;SDS011;71844;51.528;4.442;2024-01-06T06:21:49;4.65;;;3.03;;
82242;SDS011;71844;51.528;4.442;2024-01-06T06:24:16;5.93;;;3.13;;
82242;SDS011;71844;51.528;4.442;2024-01-06T06:26:43;7.20;;;2.97;;
82242;SDS011;71844;51.528;4.442;2024-01-06T06:29:10;4.07;;;2.17;;
82242;SDS011;71844;51.528;4.442;2024-01-06T06:31:38;4.40;;;2.50;;
82242;SDS011;71844;51.528;4.442;2024-01-06T06:34:05;4.35;;;2.00;;
82242;SDS011;71844;51.528;4.442;2024-01-06T06:36:34;5.63;;;2.50;;
82242;SDS011;71844;51.528;4.442;2024-01-06T06:39:02;4.50;;;1.90;;
82242;SDS011;71844;51.528;4.442;2024-01-06T06:41:30;4.25;;;2.33;;
82242;SDS011;71844;51.528;4.442;2024-01-06T06:43:57;5.88;;;3.22;;
82242;SDS011;71844;51.528;4.442;2024-01-06T06:46:24;5.25;;;2.17;;
82242;SDS011;71844;51.528;4.442;2024-01-06T06:48:51;5.07;;;2.75;;
82242;SDS011;71844;51.528;4.442;2024-01-06T06:51:18;5.25;;;2.65;;
82242;SDS011;71844;51.528;4.442;2024-01-06T06:53:44;4.43;;;2.45;;
82242;SDS011;71844;51.528;4.442;2024-01-06T06:56:14;4.43;;;2.45;;
82242;SDS011;71844;51.528;4.442;2024-01-06T06:58:43;6.80;;;3.30;;
82242;SDS011;71844;51.528;4.442;2024-01-06T07:01:10;5.28;;;3.45;;
82242;SDS011;71844;51.528;4.442;2024-01-06T07:03:37;7.18;;;3.20;;
82242;SDS011;71844;51.528;4.442;2024-01-06T07:06:04;5.68;;;2.75;;
82242;SDS011;71844;51.528;4.442;2024-01-06T07:08:30;5.65;;;2.70;;
82242;SDS011;71844;51.528;4.442;2024-01-06T07:10:57;5.53;;;2.75;;
82242;SDS011;71844;51.528;4.442;2024-01-06T07:13:24;4.78;;;2.05;;
82242;SDS011;71844;51.528;4.442;2024-01-06T07:15:52;5.80;;;2.42;;
82242;SDS011;71844;51.528;4.442;2024-01-06T07:18:33;4.70;;;2.40;;
82242;SDS011;71844;51.528;4.442;2024-01-06T07:21:00;4.93;;;2.22;;
82242;SDS011;71844;51.528;4.442;2024-01-06T07:23:30;6.68;;;4.07;;
82242;SDS011;71844;51.528;4.442;2024-01-06T07:25:57;6.63;;;2.58;;
82242;SDS011;71844;51.528;4.442;2024-01-06T07:28:24;4.70;;;2.10;;
82242;SDS011;71844;51.528;4.442;2024-01-06T07:30:51;4.28;;;2.55;;
82242;SDS011;71844;51.528;4.442;2024-01-06T07:33:18;3.15;;;1.88;;
82242;SDS011;71844;51.528;4.442;2024-01-06T07:35:45;4.47;;;2.30;;
82242;SDS011;71844;51.528;4.442;2024-01-06T07:38:12;3.22;;;1.63;;
82242;SDS011;71844;51.528;4.442;2024-01-06T07:40:39;5.13;;;2.60;;
82242;SDS011;71844;51.528;4.442;2024-01-06T07:43:06;4.22;;;2.35;;
82242;SDS011;71844;51.528;4.442;2024-01-06T07:45:33;5.13;;;2.90;;
82242;SDS011;71844;51.528;4.442;2024-01-06T07:48:00;3.50;;;1.90;;
82242;SDS011;71844;51.528;4.442;2024-01-06T07:50:28;4.30;;;2.28;;
82242;SDS011;71844;51.528;4.442;2024-01-06T07:52:55;3.38;;;1.95;;
82242;SDS011;71844;51.528;4.442;2024-01-06T07:55:21;4.40;;;2.47;;
82242;SDS011;71844;51.528;4.442;2024-01-06T07:57:48;6.05;;;2.35;;
82242;SDS011;71844;51.528;4.442;2024-01-06T08:00:15;4.22;;;2.20;;
82242;SDS011;71844;51.528;4.442;2024-01-06T08:02:42;3.38;;;2.22;;
82242;SDS011;71844;51.528;4.442;2024-01-06T08:05:13;3.83;;;2.10;;
82242;SDS011;71844;51.528;4.442;2024-01-06T08:07:39;4.38;;;2.80;;
82242;SDS011;71844;51.528;4.442;2024-01-06T08:10:06;4.47;;;2.78;;
82242;SDS011;71844;51.528;4.442;2024-01-06T08:12:35;3.58;;;2.17;;
82242;SDS011;71844;51.528;4.442;2024-01-06T08:15:02;4.30;;;2.35;;
82242;SDS011;71844;51.528;4.442;2024-01-06T08:17:31;6.25;;;2.75;;
82242;SDS011;71844;51.528;4.442;2024-01-06T08:19:57;6.43;;;2.80;;
82242;SDS011;71844;51.528;4.442;2024-01-06T08:22:24;5.60;;;2.67;;
82242;SDS011;71844;51.528;4.442;2024-01-06T08:24:51;5.68;;;2.50;;
82242;SDS011;71844;51.528;4.442;2024-01-06T08:27:18;3.80;;;2.35;;
82242;SDS011;71844;51.528;4.442;2024-01-06T08:29:45;5.32;;;2.10;;
82242;SDS011;71844;51.528;4.442;2024-01-06T08:32:12;3.83;;;2.20;;
82242;SDS011;71844;51.528;4.442;2024-01-06T08:34:41;3.53;;;2.22;;
82242;SDS011;71844;51.528;4.442;2024-01-06T08:37:08;4.70;;;2.25;;
82242;SDS011;71844;51.528;4.442;2024-01-06T08:39:35;4.03;;;1.95;;
82242;SDS011;71844;51.528;4.442;2024-01-06T08:42:01;4.93;;;2.10;;
82242;SDS011;71844;51.528;4.442;2024-01-06T08:44:29;4.00;;;1.95;;
82242;SDS011;71844;51.528;4.442;2024-01-06T08:46:55;3.30;;;1.60;;
82242;SDS011;71844;51.528;4.442;2024-01-06T08:49:22;2.67;;;1.70;;
82242;SDS011;71844;51.528;4.442;2024-01-06T08:51:49;3.92;;;1.90;;
82242;SDS011;71844;51.528;4.442;2024-01-06T08:54:16;3.28;;;2.10;;
82242;SDS011;71844;51.528;4.442;2024-01-06T08:56:43;3.53;;;2.60;;
82242;SDS011;71844;51.528;4.442;2024-01-06T08:59:10;3.10;;;2.20;;
82242;SDS011;71844;51.528;4.442;2024-01-06T09:01:37;2.70;;;1.70;;
82242;SDS011;71844;51.528;4.442;2024-01-06T09:04:05;2.58;;;1.33;;
82242;SDS011;71844;51.528;4.442;2024-01-06T09:06:33;2.53;;;1.50;;
82242;SDS011;71844;51.528;4.442;2024-01-06T09:09:03;2.97;;;2.00;;
82242;SDS011;71844;51.528;4.442;2024-01-06T09:11:30;2.83;;;1.80;;
82242;SDS011;71844;51.528;4.442;2024-01-06T09:13:57;3.60;;;2.00;;
82242;SDS011;71844;51.528;4.442;2024-01-06T09:16:23;3.00;;;1.98;;
82242;SDS011;71844;51.528;4.442;2024-01-06T09:18:50;2.78;;;1.77;;
82242;SDS011;71844;51.528;4.442;2024-01-06T09:21:17;4.15;;;2.50;;
82242;SDS011;71844;51.528;4.442;2024-01-06T09:23:44;3.38;;;2.63;;
82242;SDS011;71844;51.528;4.442;2024-01-06T09:26:11;3.40;;;1.90;;
82242;SDS011;71844;51.528;4.442;2024-01-06T09:28:38;3.67;;;2.30;;
82242;SDS011;71844;51.528;4.442;2024-01-06T09:31:05;3.38;;;2.25;;
82242;SDS011;71844;51.528;4.442;2024-01-06T09:33:32;3.47;;;2.33;;
82242;SDS011;71844;51.528;4.442;2024-01-06T09:36:01;4.95;;;2.83;;
82242;SDS011;71844;51.528;4.442;2024-01-06T09:38:28;3.92;;;2.42;;
82242;SDS011;71844;51.528;4.442;2024-01-06T09:40:55;5.65;;;2.60;;
82242;SDS011;71844;51.528;4.442;2024-01-06T09:43:22;4.03;;;2.28;;
82242;SDS011;71844;51.528;4.442;2024-01-06T09:45:53;5.20;;;2.67;;
82242;SDS011;71844;51.528;4.442;2024-01-06T09:48:28;4.00;;;3.08;;
82242;SDS011;71844;51.528;4.442;2024-01-06T09:50:57;3.42;;;2.30;;
82242;SDS011;71844;51.528;4.442;2024-01-06T09:53:33;4.05;;;2.33;;
82242;SDS011;71844;51.528;4.442;2024-01-06T09:56:03;3.88;;;2.13;;
82242;SDS011;71844;51.528;4.442;2024-01-06T09:58:31;4.65;;;2.35;;
82242;SDS011;71844;51.528;4.442;2024-01-06T10:01:00;3.65;;;2.22;;
82242;SDS011;71844;51.528;4.442;2024-01-06T10:03:28;4.25;;;3.03;;
82242;SDS011;71844;51.528;4.442;2024-01-06T10:05:55;4.95;;;2.80;;
82242;SDS011;71844;51.528;4.442;2024-01-06T10:08:27;5.35;;;2.92;;
82242;SDS011;71844;51.528;4.442;2024-01-06T10:10:53;3.60;;;2.35;;
82242;SDS011;71844;51.528;4.442;2024-01-06T10:13:20;3.28;;;2.05;;
82242;SDS011;71844;51.528;4.442;2024-01-06T10:15:47;3.50;;;1.92;;
82242;SDS011;71844;51.528;4.442;2024-01-06T10:18:14;3.53;;;2.30;;
82242;SDS011;71844;51.528;4.442;2024-01-06T10:20:44;3.47;;;2.33;;
82242;SDS011;71844;51.528;4.442;2024-01-06T10:25:39;3.10;;;1.92;;
82242;SDS011;71844;51.528;4.442;2024-01-06T10:28:11;4.88;;;1.90;;
82242;SDS011;71844;51.528;4.442;2024-01-06T10:30:41;3.35;;;1.70;;
82242;SDS011;71844;51.528;4.442;2024-01-06T10:33:09;3.22;;;2.08;;
82242;SDS011;71844;51.528;4.442;2024-01-06T10:35:37;4.55;;;2.10;;
82242;SDS011;71844;51.528;4.442;2024-01-06T10:38:04;2.38;;;1.60;;
82242;SDS011;71844;51.528;4.442;2024-01-06T10:40:32;4.05;;;1.95;;
82242;SDS011;71844;51.528;4.442;2024-01-06T10:43:00;3.20;;;1.85;;
82242;SDS011;71844;51.528;4.442;2024-01-06T10:45:28;3.58;;;2.42;;
82242;SDS011;71844;51.528;4.442;2024-01-06T10:47:56;3.58;;;2.55;;
82242;SDS011;71844;51.528;4.442;2024-01-06T10:50:24;2.90;;;2.00;;
82242;SDS011;71844;51.528;4.442;2024-01-06T10:52:52;3.33;;;1.52;;
82242;SDS011;71844;51.528;4.442;2024-01-06T10:55:21;3.00;;;1.58;;
82242;SDS011;71844;51.528;4.442;2024-01-06T10:57:49;2.63;;;1.42;;
82242;SDS011;71844;51.528;4.442;2024-01-06T11:00:19;3.13;;;2.22;;
82242;SDS011;71844;51.528;4.442;2024-01-06T11:02:46;2.67;;;1.65;;
82242;SDS011;71844;51.528;4.442;2024-01-06T11:05:14;3.10;;;2.03;;
82242;SDS011;71844;51.528;4.442;2024-01-06T11:07:41;4.22;;;1.83;;
82242;SDS011;71844;51.528;4.442;2024-01-06T11:10:11;3.35;;;1.88;;
82242;SDS011;71844;51.528;4.442;2024-01-06T11:12:42;2.50;;;1.73;;
82242;SDS011;71844;51.528;4.442;2024-01-06T11:15:10;4.32;;;1.75;;
82242;SDS011;71844;51.528;4.442;2024-01-06T11:17:52;4.45;;;1.95;;
82242;SDS011;71844;51.528;4.442;2024-01-06T11:20:24;2.78;;;2.13;;
82242;SDS011;71844;51.528;4.442;2024-01-06T11:22:53;3.03;;;1.80;;
82242;SDS011;71844;51.528;4.442;2024-01-06T11:25:20;6.68;;;2.95;;
82242;SDS011;71844;51.528;4.442;2024-01-06T11:30:26;3.25;;;1.98;;
82242;SDS011;71844;51.528;4.442;2024-01-06T11:32:56;2.85;;;1.77;;
82242;SDS011;71844;51.528;4.442;2024-01-06T11:35:26;3.30;;;1.40;;
82242;SDS011;71844;51.528;4.442;2024-01-06T11:37:54;3.55;;;1.88;;
82242;SDS011;71844;51.528;4.442;2024-01-06T11:42:58;3.38;;;1.65;;
82242;SDS011;71844;51.528;4.442;2024-01-06T11:45:37;4.07;;;1.92;;
82242;SDS011;71844;51.528;4.442;2024-01-06T11:48:07;3.30;;;1.90;;
82242;SDS011;71844;51.528;4.442;2024-01-06T11:50:37;3.17;;;1.98;;
82242;SDS011;71844;51.528;4.442;2024-01-06T11:53:06;3.10;;;1.67;;
82242;SDS011;71844;51.528;4.442;2024-01-06T11:55:37;3.28;;;2.17;;
82242;SDS011;71844;51.528;4.442;2024-01-06T11:58:05;3.67;;;1.67;;
82242;SDS011;71844;51.528;4.442;2024-01-06T12:00:32;3.80;;;2.08;;
82242;SDS011;71844;51.528;4.442;2024-01-06T12:03:00;3.38;;;1.55;;
82242;SDS011;71844;51.528;4.442;2024-01-06T12:05:28;4.25;;;2.08;;
82242;SDS011;71844;51.528;4.442;2024-01-06T12:07:59;3.65;;;2.00;;
82242;SDS011;71844;51.528;4.442;2024-01-06T12:10:28;2.80;;;1.33;;
82242;SDS011;71844;51.528;4.442;2024-01-06T12:15:27;3.88;;;2.00;;
82242;SDS011;71844;51.528;4.442;2024-01-06T12:17:55;3.83;;;2.15;;
82242;SDS011;71844;51.528;4.442;2024-01-06T12:20:23;3.42;;;2.38;;
82242;SDS011;71844;51.528;4.442;2024-01-06T12:22:54;4.70;;;2.70;;
82242;SDS011;71844;51.528;4.442;2024-01-06T12:25:22;2.97;;;1.73;;
82242;SDS011;71844;51.528;4.442;2024-01-06T12:27:49;2.90;;;1.75;;
82242;SDS011;71844;51.528;4.442;2024-01-06T12:30:21;2.60;;;1.27;;
82242;SDS011;71844;51.528;4.442;2024-01-06T12:32:50;3.88;;;2.00;;
82242;SDS011;71844;51.528;4.442;2024-01-06T12:35:20;3.35;;;1.73;;
82242;SDS011;71844;51.528;4.442;2024-01-06T12:37:48;2.75;;;1.67;;
82242;SDS011;71844;51.528;4.442;2024-01-06T12:40:24;2.65;;;1.73;;
82242;SDS011;71844;51.528;4.442;2024-01-06T12:42:52;3.55;;;1.77;;
82242;SDS011;71844;51.528;4.442;2024-01-06T12:45:19;3.13;;;1.85;;
82242;SDS011;71844;51.528;4.442;2024-01-06T12:47:46;2.85;;;1.92;;
82242;SDS011;71844;51.528;4.442;2024-01-06T12:50:16;4.03;;;1.63;;
82242;SDS011;71844;51.528;4.442;2024-01-06T12:52:43;3.35;;;1.67;;
82242;SDS011;71844;51.528;4.442;2024-01-06T12:55:12;2.15;;;1.40;;
82242;SDS011;71844;51.528;4.442;2024-01-06T12:57:40;2.58;;;1.60;;
82242;SDS011;71844;51.528;4.442;2024-01-06T13:00:08;3.85;;;1.60;;
82242;SDS011;71844;51.528;4.442;2024-01-06T13:02:37;2.85;;;1.45;;
82242;SDS011;71844;51.528;4.442;2024-01-06T13:05:04;1.98;;;1.45;;
82242;SDS011;71844;51.528;4.442;2024-01-06T13:07:31;2.25;;;1.13;;
82242;SDS011;71844;51.528;4.442;2024-01-06T13:09:58;2.30;;;1.27;;
82242;SDS011;71844;51.528;4.442;2024-01-06T13:12:26;3.38;;;1.85;;
82242;SDS011;71844;51.528;4.442;2024-01-06T13:14:55;1.67;;;1.08;;
82242;SDS011;71844;51.528;4.442;2024-01-06T13:17:22;2.58;;;1.52;;
82242;SDS011;71844;51.528;4.442;2024-01-06T13:19:49;3.35;;;1.73;;
82242;SDS011;71844;51.528;4.442;2024-01-06T13:22:16;3.67;;;1.67;;
82242;SDS011;71844;51.528;4.442;2024-01-06T13:24:46;2.70;;;1.52;;
82242;SDS011;71844;51.528;4.442;2024-01-06T13:27:16;2.50;;;1.60;;
82242;SDS011;71844;51.528;4.442;2024-01-06T13:29:42;3.08;;;1.77;;
82242;SDS011;71844;51.528;4.442;2024-01-06T13:32:10;3.28;;;1.90;;
82242;SDS011;71844;51.528;4.442;2024-01-06T13:34:37;3.00;;;1.65;;
82242;SDS011;71844;51.528;4.442;2024-01-06T13:37:04;3.67;;;1.73;;
82242;SDS011;71844;51.528;4.442;2024-01-06T13:39:33;2.97;;;1.60;;
82242;SDS011;71844;51.528;4.442;2024-01-06T13:42:00;2.63;;;1.50;;
82242;SDS011;71844;51.528;4.442;2024-01-06T13:44:29;2.83;;;1.50;;
82242;SDS011;71844;51.528;4.442;2024-01-06T13:46:56;3.20;;;1.95;;
82242;SDS011;71844;51.528;4.442;2024-01-06T13:49:23;3.67;;;1.02;;
82242;SDS011;71844;51.528;4.442;2024-01-06T13:51:50;3.15;;;1.70;;
82242;SDS011;71844;51.528;4.442;2024-01-06T13:54:17;2.42;;;1.40;;
82242;SDS011;71844;51.528;4.442;2024-01-06T13:56:45;3.42;;;1.20;;
82242;SDS011;71844;51.528;4.442;2024-01-06T13:59:12;2.30;;;1.48;;
82242;SDS011;71844;51.528;4.442;2024-01-06T14:01:39;2.67;;;2.00;;
82242;SDS011;71844;51.528;4.442;2024-01-06T14:04:06;3.15;;;1.50;;
82242;SDS011;71844;51.528;4.442;2024-01-06T14:06:33;2.78;;;1.60;;
82242;SDS011;71844;51.528;4.442;2024-01-06T14:09:00;2.05;;;1.45;;
82242;SDS011;71844;51.528;4.442;2024-01-06T14:11:27;2.55;;;2.15;;
82242;SDS011;71844;51.528;4.442;2024-01-06T14:13:57;1.98;;;1.10;;
82242;SDS011;71844;51.528;4.442;2024-01-06T14:16:24;2.08;;;1.35;;
82242;SDS011;71844;51.528;4.442;2024-01-06T14:18:52;2.08;;;1.30;;
82242;SDS011;71844;51.528;4.442;2024-01-06T14:21:19;2.22;;;1.25;;
82242;SDS011;71844;51.528;4.442;2024-01-06T14:23:48;1.55;;;0.98;;
82242;SDS011;71844;51.528;4.442;2024-01-06T14:26:18;1.83;;;0.98;;
82242;SDS011;71844;51.528;4.442;2024-01-06T14:28:50;2.08;;;1.10;;
82242;SDS011;71844;51.528;4.442;2024-01-06T14:31:17;1.70;;;1.00;;
82242;SDS011;71844;51.528;4.442;2024-01-06T14:33:44;2.08;;;1.20;;
82242;SDS011;71844;51.528;4.442;2024-01-06T14:36:11;2.97;;;1.20;;
82242;SDS011;71844;51.528;4.442;2024-01-06T14:38:38;2.53;;;1.23;;
82242;SDS011;71844;51.528;4.442;2024-01-06T14:41:06;2.72;;;1.02;;
82242;SDS011;71844;51.528;4.442;2024-01-06T14:43:32;1.90;;;1.17;;
82242;SDS011;71844;51.528;4.442;2024-01-06T14:45:59;2.85;;;1.48;;
82242;SDS011;71844;51.528;4.442;2024-01-06T14:48:26;1.70;;;1.08;;
82242;SDS011;71844;51.528;4.442;2024-01-06T14:50:53;2.92;;;1.73;;
82242;SDS011;71844;51.528;4.442;2024-01-06T14:53:20;3.10;;;1.17;;
82242;SDS011;71844;51.528;4.442;2024-01-06T14:55:47;2.55;;;1.48;;
82242;SDS011;71844;51.528;4.442;2024-01-06T14:58:14;3.03;;;1.13;;
82242;SDS011;71844;51.528;4.442;2024-01-06T15:00:44;2.58;;;1.15;;
82242;SDS011;71844;51.528;4.442;2024-01-06T15:03:11;1.52;;;0.77;;
82242;SDS011;71844;51.528;4.442;2024-01-06T15:05:38;3.63;;;1.55;;